Terminal Aerodrome Forecast
Issued by NWS Lake Charles, LA

Home | Current Version | Previous Version | Text Only | Print | Product List | Glossary On
Versions: 1 2 3 4 5 6 7 8 9 10 11 12
849
FTUS44 KLCH 241125
TAFLFT
TAF
KLFT 241125Z 2412/2512 VRB03KT P6SM SCT020 SCT250
      TEMPO 2412/2414 5SM BR
     FM241500 16008KT P6SM SCT035 SCT250
     FM250200 16003KT P6SM FEW015=

USA.gov is the U.S. government's official web portal to all federal, state and local government web resources and services.